Time;durP1;ratioP1;P1;durP2;ratioP2;P2;SDS_P1;SDS_P2;PMS_P1;PMS_P2;Temp;Humidity;BMP_temperature;BMP_pressure;BME280_temperature;BME280_humidity;BME280_pressure;Samples;Min_cycle;Max_cycle;Signal;HPM_P1;HPM_P2
2023/09/23 00:00:15;;;;;;;5.82;4.18;;;11.70;86.10;;;;;;5089316;28;20056;-66
2023/09/23 00:02:44;;;;;;;6.45;4.28;;;11.70;86.10;;;;;;5089152;28;20043;-67
2023/09/23 00:05:11;;;;;;;6.78;4.20;;;11.70;86.00;;;;;;5088014;28;20412;-65
2023/09/23 00:07:39;;;;;;;8.30;4.38;;;11.70;86.00;;;;;;5075612;28;20451;-67
2023/09/23 00:10:07;;;;;;;6.80;4.45;;;11.70;86.10;;;;;;5073235;28;20044;-66
2023/09/23 00:12:37;;;;;;;5.68;4.28;;;11.70;86.20;;;;;;5073262;28;20507;-65
2023/09/23 00:15:05;;;;;;;6.88;4.15;;;11.60;86.10;;;;;;5081242;28;20040;-67
2023/09/23 00:17:32;;;;;;;5.15;3.88;;;11.60;86.20;;;;;;5084688;28;20454;-66
2023/09/23 00:19:58;;;;;;;6.32;4.20;;;11.50;86.30;;;;;;5070173;28;20044;-67
2023/09/23 00:22:23;;;;;;;5.40;3.63;;;11.60;86.30;;;;;;5068392;28;20515;-66
2023/09/23 00:24:50;;;;;;;5.72;4.55;;;11.50;86.30;;;;;;5088758;28;20048;-66
2023/09/23 00:27:17;;;;;;;5.80;4.07;;;11.50;86.30;;;;;;5070631;28;20055;-67
2023/09/23 00:29:44;;;;;;;7.35;4.00;;;11.50;86.30;;;;;;5089701;28;20110;-67
2023/09/23 00:32:12;;;;;;;6.43;4.07;;;11.50;86.30;;;;;;5073067;28;20060;-67
2023/09/23 00:34:38;;;;;;;6.72;4.03;;;11.50;86.30;;;;;;5082239;28;20055;-67
2023/09/23 00:37:04;;;;;;;5.20;2.95;;;11.50;86.20;;;;;;5068363;28;20469;-66
2023/09/23 00:39:30;;;;;;;4.05;3.65;;;11.50;86.10;;;;;;5070577;28;20090;-66
2023/09/23 00:41:55;;;;;;;5.07;2.42;;;11.50;86.10;;;;;;5089298;28;20044;-66
2023/09/23 00:44:21;;;;;;;3.33;1.98;;;11.50;86.10;;;;;;5088800;28;20055;-67
2023/09/23 00:46:47;;;;;;;3.92;2.20;;;11.50;86.00;;;;;;5092014;28;20059;-66
2023/09/23 00:49:13;;;;;;;2.88;1.63;;;11.50;86.00;;;;;;5078482;28;20044;-67
2023/09/23 00:51:40;;;;;;;3.47;1.58;;;11.50;85.80;;;;;;5093037;28;20599;-67
2023/09/23 00:54:13;;;;;;;3.00;1.67;;;11.50;85.80;;;;;;5092403;28;20044;-68
2023/09/23 00:56:40;;;;;;;1.88;1.52;;;11.50;85.90;;;;;;5092655;28;20044;-66
2023/09/23 00:59:06;;;;;;;2.67;1.20;;;11.50;85.80;;;;;;5092001;28;20059;-67
2023/09/23 01:01:32;;;;;;;3.33;1.30;;;11.40;85.70;;;;;;5091441;28;20116;-65
2023/09/23 01:03:58;;;;;;;2.63;1.30;;;11.40;85.70;;;;;;5091388;28;20411;-66
2023/09/23 01:06:27;;;;;;;4.88;1.30;;;11.40;85.80;;;;;;5076302;28;20044;-66
2023/09/23 01:08:57;;;;;;;2.55;1.35;;;11.40;85.80;;;;;;5081437;28;20052;-66
2023/09/23 01:11:25;;;;;;;3.47;1.73;;;11.40;85.90;;;;;;5072278;28;20110;-67
2023/09/23 01:13:52;;;;;;;3.70;1.80;;;11.40;86.00;;;;;;5077384;28;20127;-64
2023/09/23 01:16:18;;;;;;;2.25;1.40;;;11.40;85.90;;;;;;5084883;28;20047;-66
2023/09/23 01:18:45;;;;;;;5.10;1.52;;;11.40;85.90;;;;;;5070595;28;20040;-65
2023/09/23 01:21:12;;;;;;;3.20;2.17;;;11.30;86.00;;;;;;5070985;28;20133;-66
2023/09/23 01:23:38;;;;;;;3.92;1.90;;;11.30;86.00;;;;;;5072661;28;20059;-65
2023/09/23 01:26:04;;;;;;;5.32;2.28;;;11.30;86.00;;;;;;5071851;28;20053;-66
2023/09/23 01:28:33;;;;;;;3.88;2.22;;;11.30;86.10;;;;;;5082224;28;20076;-65
2023/09/23 01:31:03;;;;;;;4.70;2.45;;;11.30;86.10;;;;;;5086415;28;20517;-66
2023/09/23 01:33:29;;;;;;;3.25;2.67;;;11.30;86.10;;;;;;5081688;28;20535;-66
2023/09/23 01:35:58;;;;;;;5.45;3.10;;;11.30;86.30;;;;;;5074267;28;20056;-66
2023/09/23 01:38:24;;;;;;;5.05;2.80;;;11.30;86.30;;;;;;5071646;28;20404;-65
2023/09/23 01:40:51;;;;;;;5.22;3.13;;;11.30;86.40;;;;;;5078783;28;20579;-66
2023/09/23 01:43:17;;;;;;;5.47;3.20;;;11.30;86.40;;;;;;5089360;28;20182;-67
2023/09/23 01:45:43;;;;;;;5.57;3.10;;;11.30;86.50;;;;;;5086199;28;20122;-65
2023/09/23 01:48:08;;;;;;;4.50;3.08;;;11.30;86.50;;;;;;5080215;28;20052;-66
2023/09/23 01:50:34;;;;;;;5.57;3.00;;;11.30;86.40;;;;;;5089196;28;20040;-65
2023/09/23 01:53:00;;;;;;;4.72;3.42;;;11.30;86.50;;;;;;5078463;28;20048;-65
2023/09/23 01:55:26;;;;;;;7.72;3.40;;;11.20;86.40;;;;;;5071156;28;20044;-67
2023/09/23 01:57:52;;;;;;;5.45;3.38;;;11.30;86.40;;;;;;5070943;28;20045;-66
2023/09/23 02:00:18;;;;;;;8.07;3.75;;;11.20;86.40;;;;;;5070624;28;20052;-66
2023/09/23 02:02:48;;;;;;;7.35;3.83;;;11.10;86.40;;;;;;5069903;28;20127;-66
2023/09/23 02:05:15;;;;;;;5.18;2.92;;;11.10;86.30;;;;;;5090356;28;20431;-66
2023/09/23 02:07:41;;;;;;;5.47;3.20;;;11.10;86.20;;;;;;5077700;28;20382;-66
2023/09/23 02:10:14;;;;;;;5.65;2.72;;;11.10;86.30;;;;;;5071013;28;20049;-65
2023/09/23 02:12:42;;;;;;;6.32;3.10;;;11.00;86.10;;;;;;5070920;28;20056;-65
2023/09/23 02:15:08;;;;;;;4.68;2.60;;;11.00;86.10;;;;;;5078946;28;20044;-66
2023/09/23 02:17:36;;;;;;;5.93;2.92;;;11.00;86.00;;;;;;5084170;28;20080;-66
2023/09/23 02:20:11;;;;;;;5.53;2.70;;;10.90;86.00;;;;;;5081737;28;20044;-64
2023/09/23 02:22:37;;;;;;;5.72;2.53;;;10.90;86.00;;;;;;5072797;28;20259;-65
2023/09/23 02:25:04;;;;;;;3.97;2.60;;;10.80;86.00;;;;;;5089836;28;20040;-65
2023/09/23 02:27:29;;;;;;;5.32;3.15;;;10.80;86.00;;;;;;5088976;28;20412;-66
2023/09/23 02:29:55;;;;;;;5.05;2.88;;;10.80;86.10;;;;;;5070782;28;20047;-67
2023/09/23 02:32:21;;;;;;;4.20;2.72;;;10.80;86.20;;;;;;5070771;28;20052;-65
2023/09/23 02:34:46;;;;;;;5.55;3.00;;;10.80;86.20;;;;;;5082470;28;20051;-66
2023/09/23 02:37:12;;;;;;;5.45;3.60;;;10.80;86.20;;;;;;5070239;28;20082;-67
2023/09/23 02:39:38;;;;;;;7.63;4.07;;;10.70;86.20;;;;;;5070499;28;20139;-67
2023/09/23 02:42:05;;;;;;;8.50;4.50;;;10.80;86.30;;;;;;5087659;28;20101;-65
2023/09/23 02:44:31;;;;;;;7.78;4.50;;;10.70;86.40;;;;;;5089854;28;20516;-65
2023/09/23 02:46:56;;;;;;;7.25;5.28;;;10.70;86.40;;;;;;5076406;28;20049;-66
2023/09/23 02:49:22;;;;;;;9.48;5.90;;;10.70;86.30;;;;;;5090040;28;20032;-66
2023/09/23 02:51:49;;;;;;;8.45;5.53;;;10.70;86.40;;;;;;5090176;28;20543;-65
2023/09/23 02:54:17;;;;;;;11.88;6.97;;;10.70;86.50;;;;;;5090591;28;20047;-66
2023/09/23 02:56:46;;;;;;;10.32;7.40;;;10.70;86.60;;;;;;5090499;28;20507;-66
2023/09/23 02:59:21;;;;;;;15.77;9.35;;;10.70;86.70;;;;;;5068784;28;20048;-67
2023/09/23 03:01:51;;;;;;;21.10;9.85;;;10.70;86.70;;;;;;5069427;28;20063;-69
2023/09/23 03:04:23;;;;;;;16.88;10.55;;;10.70;86.70;;;;;;5080199;28;20044;-66
2023/09/23 03:06:50;;;;;;;20.98;11.63;;;10.70;86.80;;;;;;5076478;28;20601;-67
2023/09/23 03:09:20;;;;;;;23.52;12.35;;;10.70;86.90;;;;;;5077021;28;20564;-67
2023/09/23 03:11:53;;;;;;;23.05;13.35;;;10.70;86.90;;;;;;5083495;28;20052;-67
2023/09/23 03:14:23;;;;;;;21.55;13.23;;;10.70;87.00;;;;;;5083257;28;20040;-67
2023/09/23 03:16:54;;;;;;;24.95;13.85;;;10.70;87.00;;;;;;5090024;28;20096;-66
2023/09/23 03:19:32;;;;;;;26.77;14.23;;;10.70;87.10;;;;;;5089388;28;20052;-67
2023/09/23 03:21:59;;;;;;;28.25;15.50;;;10.70;87.10;;;;;;5089419;28;20040;-66
2023/09/23 03:24:26;;;;;;;29.52;15.48;;;10.70;87.10;;;;;;5087705;28;20044;-67
2023/09/23 03:26:58;;;;;;;31.05;16.90;;;10.70;87.10;;;;;;5078920;28;20106;-67
2023/09/23 03:29:28;;;;;;;32.75;16.55;;;10.70;87.10;;;;;;5086680;28;20066;-67
2023/09/23 03:31:58;;;;;;;35.47;18.00;;;10.70;87.10;;;;;;5089286;28;20051;-66
2023/09/23 03:34:26;;;;;;;30.88;17.50;;;10.60;87.10;;;;;;5083181;28;20048;-67
2023/09/23 03:36:53;;;;;;;33.20;17.83;;;10.60;87.00;;;;;;5081309;28;20051;-67
2023/09/23 03:39:19;;;;;;;34.33;17.10;;;10.60;87.00;;;;;;5089531;28;20522;-67
2023/09/23 03:41:46;;;;;;;32.30;18.20;;;10.60;86.90;;;;;;5089284;28;20456;-67
2023/09/23 03:44:15;;;;;;;28.45;17.63;;;10.50;87.00;;;;;;5088520;28;20136;-67
2023/09/23 03:46:50;;;;;;;29.17;17.63;;;10.50;87.10;;;;;;5089141;28;20047;-67
2023/09/23 03:49:17;;;;;;;38.92;19.10;;;10.50;87.00;;;;;;5069126;28;20036;-67
2023/09/23 03:51:44;;;;;;;28.30;17.47;;;10.50;86.90;;;;;;5083333;28;20051;-67
2023/09/23 03:54:10;;;;;;;23.42;17.05;;;10.50;86.90;;;;;;5080547;28;20370;-67
2023/09/23 03:56:39;;;;;;;27.42;17.52;;;10.50;86.90;;;;;;5070307;28;20040;-67
2023/09/23 03:59:05;;;;;;;32.20;18.40;;;10.50;86.80;;;;;;5089270;28;20076;-67
2023/09/23 04:01:32;;;;;;;28.33;18.05;;;10.50;86.80;;;;;;5080690;28;20467;-66
2023/09/23 04:03:59;;;;;;;35.13;19.27;;;10.50;86.90;;;;;;5078131;28;20420;-67
2023/09/23 04:06:25;;;;;;;40.45;19.85;;;10.40;87.00;;;;;;5086155;28;20044;-68
2023/09/23 04:08:51;;;;;;;31.45;19.60;;;10.40;87.00;;;;;;5069285;28;20057;-65
2023/09/23 04:11:18;;;;;;;38.03;21.70;;;10.50;87.00;;;;;;5066714;28;20098;-67
2023/09/23 04:13:47;;;;;;;35.05;20.35;;;10.50;87.00;;;;;;5076194;28;20147;-67
2023/09/23 04:16:13;;;;;;;40.25;21.20;;;10.50;87.00;;;;;;5073902;28;20080;-66
2023/09/23 04:18:40;;;;;;;32.38;19.92;;;10.40;87.00;;;;;;5071231;28;20493;-66
2023/09/23 04:21:08;;;;;;;35.10;21.33;;;10.40;87.00;;;;;;5085398;28;20051;-66
2023/09/23 04:23:34;;;;;;;38.80;22.58;;;10.40;86.90;;;;;;5072229;28;20044;-67
2023/09/23 04:26:02;;;;;;;42.45;21.63;;;10.40;86.90;;;;;;5072393;28;20417;-65
2023/09/23 04:28:28;;;;;;;37.10;22.27;;;10.40;87.00;;;;;;5083601;28;20079;-66
2023/09/23 04:30:54;;;;;;;44.03;24.40;;;10.30;86.90;;;;;;5092320;28;20076;-66
2023/09/23 04:33:20;;;;;;;38.45;22.35;;;10.30;86.90;;;;;;5090382;28;20399;-67
2023/09/23 04:35:47;;;;;;;39.50;23.15;;;10.30;87.00;;;;;;5076757;28;20072;-66
2023/09/23 04:38:15;;;;;;;42.05;25.45;;;10.30;87.10;;;;;;5072894;28;20392;-67
2023/09/23 04:40:42;;;;;;;38.92;24.02;;;10.30;87.10;;;;;;5078771;28;20054;-65
2023/09/23 04:43:10;;;;;;;35.97;23.50;;;10.30;87.10;;;;;;5092598;28;20194;-65
2023/09/23 04:45:37;;;;;;;41.47;24.77;;;10.30;87.20;;;;;;5087392;28;20055;-66
2023/09/23 04:48:06;;;;;;;37.47;23.85;;;10.30;87.20;;;;;;5081311;28;20050;-65
2023/09/23 04:50:31;;;;;;;39.63;24.23;;;10.40;87.20;;;;;;5084345;28;20492;-65
2023/09/23 04:52:59;;;;;;;36.63;23.98;;;10.40;87.10;;;;;;5072437;28;20051;-64
2023/09/23 04:55:25;;;;;;;32.67;22.50;;;10.40;87.20;;;;;;5091191;28;20048;-66
2023/09/23 04:57:51;;;;;;;39.47;25.13;;;10.40;87.20;;;;;;5090348;28;20075;-66
2023/09/23 05:00:18;;;;;;;30.73;22.40;;;10.40;87.20;;;;;;5078020;28;20087;-66
2023/09/23 05:02:47;;;;;;;30.60;21.17;;;10.40;87.10;;;;;;5091389;28;20123;-66
2023/09/23 05:05:13;;;;;;;28.50;20.02;;;10.40;87.20;;;;;;5086154;28;20079;-65
2023/09/23 05:07:39;;;;;;;38.78;22.45;;;10.40;87.20;;;;;;5084524;28;20140;-66
2023/09/23 05:10:05;;;;;;;33.25;22.20;;;10.40;87.10;;;;;;5073480;28;20051;-66
2023/09/23 05:12:31;;;;;;;31.75;20.23;;;10.40;87.20;;;;;;5072523;28;20131;-64
2023/09/23 05:14:57;;;;;;;31.45;19.42;;;10.40;87.10;;;;;;5078253;28;20528;-66
2023/09/23 05:17:26;;;;;;;32.47;19.77;;;10.40;87.00;;;;;;5091926;28;20040;-66
2023/09/23 05:19:52;;;;;;;27.50;19.17;;;10.40;87.00;;;;;;5090658;28;20052;-66
2023/09/23 05:22:19;;;;;;;29.13;18.80;;;10.30;86.90;;;;;;5089746;28;20051;-66
2023/09/23 05:24:48;;;;;;;30.27;20.05;;;10.30;86.90;;;;;;5089819;28;20510;-65
2023/09/23 05:27:14;;;;;;;39.25;24.02;;;10.30;86.80;;;;;;5076645;28;20059;-66
2023/09/23 05:29:42;;;;;;;30.45;19.83;;;10.30;86.80;;;;;;5091082;28;20040;-65
2023/09/23 05:32:10;;;;;;;34.40;21.05;;;10.30;86.70;;;;;;5077063;28;20523;-64
2023/09/23 05:34:39;;;;;;;43.37;27.97;;;10.20;86.80;;;;;;5072877;28;20098;-66
2023/09/23 05:37:06;;;;;;;38.08;23.80;;;10.20;86.70;;;;;;5070024;28;20466;-67
2023/09/23 05:39:34;;;;;;;30.65;21.00;;;10.20;86.80;;;;;;5078764;28;20093;-65
2023/09/23 05:42:01;;;;;;;62.25;35.83;;;10.20;86.80;;;;;;5091259;28;20108;-66
2023/09/23 05:44:27;;;;;;;82.78;44.15;;;10.20;86.70;;;;;;5082905;28;20480;-65
2023/09/23 05:46:53;;;;;;;26.20;19.47;;;10.20;86.70;;;;;;5074040;28;20052;-67
2023/09/23 05:49:19;;;;;;;27.03;18.50;;;10.10;86.60;;;;;;5080301;28;20036;-66
2023/09/23 05:51:45;;;;;;;25.73;17.97;;;10.10;86.70;;;;;;5069676;28;20106;-66
2023/09/23 05:54:11;;;;;;;31.05;19.55;;;10.10;86.70;;;;;;5076250;28;20051;-65
2023/09/23 05:56:37;;;;;;;28.77;18.38;;;10.20;86.80;;;;;;5086429;28;20047;-64
2023/09/23 05:59:05;;;;;;;27.70;18.33;;;10.20;86.80;;;;;;5074925;28;20060;-64
2023/09/23 06:01:32;;;;;;;25.73;17.90;;;10.20;86.80;;;;;;5086116;28;20051;-65
2023/09/23 06:03:58;;;;;;;27.27;17.53;;;10.20;86.70;;;;;;5078338;28;20117;-65
2023/09/23 06:06:24;;;;;;;25.17;17.67;;;10.20;86.80;;;;;;5073331;28;20080;-66
2023/09/23 06:08:50;;;;;;;26.45;18.05;;;10.30;86.70;;;;;;5087268;28;20448;-65
2023/09/23 06:11:16;;;;;;;25.63;18.40;;;10.30;86.70;;;;;;5090970;28;20573;-65
2023/09/23 06:13:42;;;;;;;26.23;17.92;;;10.30;86.70;;;;;;5087539;28;20056;-66
2023/09/23 06:16:08;;;;;;;24.55;16.95;;;10.30;86.70;;;;;;5090376;28;20412;-66
2023/09/23 06:18:33;;;;;;;27.67;19.02;;;10.30;86.70;;;;;;5074677;28;20115;-65
2023/09/23 06:21:00;;;;;;;22.80;17.30;;;10.40;86.70;;;;;;5073988;28;20106;-66
2023/09/23 06:23:26;;;;;;;26.98;18.50;;;10.40;86.70;;;;;;5090135;28;20052;-66
2023/09/23 06:25:55;;;;;;;26.67;18.40;;;10.40;86.70;;;;;;5088556;28;20096;-65
2023/09/23 06:28:24;;;;;;;27.75;19.98;;;10.40;86.80;;;;;;5088346;28;20424;-66
2023/09/23 06:30:50;;;;;;;32.22;20.08;;;10.50;86.80;;;;;;5085934;28;20677;-66
2023/09/23 06:33:16;;;;;;;28.98;19.38;;;10.50;86.80;;;;;;5084655;28;20135;-66
2023/09/23 06:35:42;;;;;;;27.37;19.10;;;10.50;86.90;;;;;;5088698;28;20544;-66
2023/09/23 06:38:08;;;;;;;31.10;22.27;;;10.60;87.00;;;;;;5088037;28;20068;-65
2023/09/23 06:40:33;;;;;;;31.27;21.92;;;10.60;87.00;;;;;;5089342;28;20036;-65
2023/09/23 06:42:59;;;;;;;33.47;21.42;;;10.70;87.00;;;;;;5089051;28;20405;-66
2023/09/23 06:45:25;;;;;;;30.60;22.75;;;10.70;87.10;;;;;;5088101;28;20123;-66
2023/09/23 06:47:50;;;;;;;32.05;22.55;;;10.80;87.20;;;;;;5086729;28;20044;-65
2023/09/23 06:50:17;;;;;;;41.45;25.83;;;10.90;87.20;;;;;;5086662;28;20047;-67
2023/09/23 06:52:43;;;;;;;36.63;23.67;;;11.00;87.30;;;;;;5088535;28;20040;-66
2023/09/23 06:55:09;;;;;;;38.88;25.77;;;11.00;87.20;;;;;;5086682;28;20391;-67
2023/09/23 06:57:35;;;;;;;37.63;25.15;;;11.00;87.30;;;;;;5088033;28;20047;-64
2023/09/23 07:00:03;;;;;;;37.55;26.17;;;11.10;87.20;;;;;;5086269;28;20055;-67
2023/09/23 07:02:28;;;;;;;38.13;26.42;;;11.10;87.20;;;;;;5076263;28;20127;-64
2023/09/23 07:04:54;;;;;;;40.15;27.63;;;11.10;87.20;;;;;;5066260;28;20548;-66
2023/09/23 07:07:20;;;;;;;42.28;27.40;;;11.10;87.20;;;;;;5085414;28;20044;-66
2023/09/23 07:09:45;;;;;;;41.85;26.15;;;11.20;87.20;;;;;;5073624;28;20218;-66
2023/09/23 07:12:13;;;;;;;40.63;27.45;;;11.30;87.10;;;;;;5085750;28;20044;-66
2023/09/23 07:14:40;;;;;;;37.47;26.08;;;11.30;87.10;;;;;;5084743;28;20589;-66
2023/09/23 07:17:06;;;;;;;37.08;25.40;;;11.30;87.00;;;;;;5084626;28;20127;-65
2023/09/23 07:19:32;;;;;;;39.65;25.08;;;11.40;87.10;;;;;;5076910;28;20447;-66
2023/09/23 07:21:58;;;;;;;37.53;24.50;;;11.40;87.10;;;;;;5082553;28;20100;-66
2023/09/23 07:24:27;;;;;;;34.85;25.45;;;11.50;87.10;;;;;;5085920;28;20036;-66
2023/09/23 07:26:59;;;;;;;36.78;25.15;;;11.50;87.10;;;;;;5085704;28;20209;-66
2023/09/23 07:29:25;;;;;;;41.65;26.27;;;11.50;87.00;;;;;;5086252;28;20056;-66
2023/09/23 07:31:52;;;;;;;36.20;25.98;;;11.60;87.20;;;;;;5084881;28;20051;-67
2023/09/23 07:34:18;;;;;;;35.85;22.88;;;11.70;87.30;;;;;;5083640;28;20547;-66
2023/09/23 07:36:44;;;;;;;32.25;23.90;;;11.80;87.40;;;;;;5085957;28;20090;-66
2023/09/23 07:39:15;;;;;;;30.98;23.02;;;11.90;87.50;;;;;;5085176;28;20088;-66
2023/09/23 07:41:41;;;;;;;30.63;22.02;;;12.10;87.70;;;;;;5075334;28;20133;-66
2023/09/23 07:44:07;;;;;;;30.23;21.80;;;12.20;87.60;;;;;;5084208;28;20486;-66
2023/09/23 07:46:32;;;;;;;28.13;21.50;;;12.30;87.60;;;;;;5085290;28;20621;-63
2023/09/23 07:48:58;;;;;;;28.02;20.65;;;12.50;87.60;;;;;;5083909;28;20056;-66
2023/09/23 07:51:24;;;;;;;30.33;21.05;;;12.50;87.30;;;;;;5079219;28;20131;-66
2023/09/23 07:53:53;;;;;;;24.65;18.23;;;12.70;87.50;;;;;;5073637;28;20048;-65
2023/09/23 07:56:18;;;;;;;23.33;17.85;;;12.70;87.30;;;;;;5084729;28;20036;-65
2023/09/23 07:58:44;;;;;;;22.83;17.35;;;12.80;87.00;;;;;;5072449;28;20063;-66
2023/09/23 08:01:10;;;;;;;28.27;18.58;;;12.80;86.80;;;;;;5084405;28;20059;-65
2023/09/23 08:03:36;;;;;;;26.55;18.63;;;12.80;86.70;;;;;;5072289;28;20044;-66
2023/09/23 08:06:02;;;;;;;29.67;19.20;;;12.90;86.70;;;;;;5069306;28;20040;-66
2023/09/23 08:08:28;;;;;;;29.08;19.02;;;12.90;86.80;;;;;;5073744;28;20052;-66
2023/09/23 08:10:54;;;;;;;27.40;19.02;;;13.00;86.80;;;;;;5082412;28;20501;-64
2023/09/23 08:13:20;;;;;;;27.50;19.95;;;13.00;86.90;;;;;;5080875;28;20075;-66
2023/09/23 08:15:46;;;;;;;27.80;19.90;;;13.00;86.80;;;;;;5084011;28;20048;-66
2023/09/23 08:18:12;;;;;;;26.15;18.95;;;13.00;87.00;;;;;;5079784;28;20102;-66
2023/09/23 08:20:39;;;;;;;27.77;18.80;;;13.10;87.10;;;;;;5078401;28;20103;-66
2023/09/23 08:23:05;;;;;;;33.45;19.75;;;13.10;87.20;;;;;;5070781;28;20072;-66
2023/09/23 08:25:31;;;;;;;25.52;17.40;;;13.20;87.20;;;;;;5068640;28;20052;-65
2023/09/23 08:27:57;;;;;;;27.55;18.85;;;13.20;87.10;;;;;;5072722;28;20062;-65
2023/09/23 08:30:23;;;;;;;25.23;18.15;;;13.30;87.00;;;;;;5083726;28;20043;-66
2023/09/23 08:32:49;;;;;;;24.58;16.83;;;13.30;87.00;;;;;;5082169;28;20492;-66
2023/09/23 08:35:15;;;;;;;23.50;16.58;;;13.30;87.10;;;;;;5082759;28;20036;-66
2023/09/23 08:37:41;;;;;;;21.23;16.05;;;13.40;87.00;;;;;;5069038;28;20059;-65
2023/09/23 08:40:09;;;;;;;25.35;16.45;;;13.50;86.90;;;;;;5077032;28;20058;-66
2023/09/23 08:42:35;;;;;;;21.52;15.70;;;13.50;86.70;;;;;;5071212;28;20500;-66
2023/09/23 08:45:02;;;;;;;19.63;14.70;;;13.50;86.60;;;;;;5082841;28;20370;-65
2023/09/23 08:47:29;;;;;;;19.95;14.55;;;13.50;86.30;;;;;;5069144;28;20045;-66
2023/09/23 08:49:55;;;;;;;19.02;12.50;;;13.60;86.50;;;;;;5068554;28;20311;-67
2023/09/23 08:52:25;;;;;;;17.88;11.48;;;13.60;86.40;;;;;;5072476;28;20047;-66
2023/09/23 08:54:50;;;;;;;13.45;9.05;;;13.70;86.40;;;;;;5088989;28;20044;-67
2023/09/23 08:57:20;;;;;;;13.32;9.00;;;13.90;85.90;;;;;;5089099;28;20539;-65
2023/09/23 08:59:46;;;;;;;11.75;8.02;;;13.90;85.00;;;;;;5088840;28;20052;-66
2023/09/23 09:02:25;;;;;;;14.57;7.35;;;13.90;84.80;;;;;;5091434;28;20373;-65
2023/09/23 09:04:55;;;;;;;11.70;6.47;;;14.00;84.70;;;;;;5092120;28;20047;-67
2023/09/23 09:07:25;;;;;;;12.73;6.50;;;14.00;84.40;;;;;;5078836;28;20602;-64
2023/09/23 09:09:51;;;;;;;9.38;5.80;;;14.10;84.30;;;;;;5072966;28;20562;-65
2023/09/23 09:12:16;;;;;;;11.88;5.93;;;14.20;84.20;;;;;;5072141;28;20049;-66
2023/09/23 09:14:48;;;;;;;8.02;4.88;;;14.30;84.20;;;;;;5089846;28;20392;-66
2023/09/23 09:17:15;;;;;;;7.53;4.13;;;14.40;83.70;;;;;;5092299;28;20050;-64
2023/09/23 09:19:40;;;;;;;7.00;3.97;;;14.40;83.00;;;;;;5092313;28;20075;-66
2023/09/23 09:22:07;;;;;;;6.53;3.70;;;14.50;83.00;;;;;;5092007;28;20079;-66
2023/09/23 09:24:33;;;;;;;7.57;4.00;;;14.50;83.00;;;;;;5092457;28;20044;-66
2023/09/23 09:26:59;;;;;;;5.88;3.67;;;14.60;83.10;;;;;;5092514;28;20119;-66
2023/09/23 09:29:25;;;;;;;5.43;3.67;;;14.70;82.90;;;;;;5091593;28;20131;-67
2023/09/23 09:31:52;;;;;;;6.35;3.63;;;14.80;82.50;;;;;;5090157;28;20137;-65
2023/09/23 09:34:24;;;;;;;5.93;3.80;;;14.90;82.80;;;;;;5084578;28;20053;-66
2023/09/23 09:36:57;;;;;;;8.48;3.47;;;14.90;82.70;;;;;;5070759;28;20493;-66
2023/09/23 09:39:28;;;;;;;9.38;4.03;;;14.90;82.40;;;;;;5086957;28;20079;-66
2023/09/23 09:41:54;;;;;;;5.35;3.80;;;14.90;82.40;;;;;;5089849;28;20479;-66
2023/09/23 09:44:22;;;;;;;8.90;3.60;;;14.90;81.80;;;;;;5079920;28;20080;-65
2023/09/23 09:46:51;;;;;;;7.78;3.30;;;15.00;82.40;;;;;;5090187;28;20052;-64
2023/09/23 09:49:17;;;;;;;6.45;3.00;;;15.20;82.20;;;;;;5077291;28;20407;-66
2023/09/23 09:51:51;;;;;;;6.95;3.20;;;15.30;81.50;;;;;;5090977;28;20044;-66
2023/09/23 09:54:20;;;;;;;8.63;2.72;;;15.40;80.80;;;;;;5091043;28;20127;-66
2023/09/23 09:56:49;;;;;;;4.03;1.90;;;15.40;80.70;;;;;;5087593;28;20505;-65
2023/09/23 09:59:30;;;;;;;4.13;2.42;;;15.40;80.50;;;;;;5071022;28;20462;-65
2023/09/23 10:01:57;;;;;;;10.57;4.35;;;15.30;80.70;;;;;;5088878;28;20396;-65
2023/09/23 10:04:28;;;;;;;9.63;4.10;;;15.20;81.40;;;;;;5090038;28;20599;-66
2023/09/23 10:06:55;;;;;;;12.60;5.18;;;15.00;81.80;;;;;;5087488;28;20408;-64
2023/09/23 10:09:28;;;;;;;9.80;5.00;;;14.90;82.20;;;;;;5090909;28;20050;-65
2023/09/23 10:11:54;;;;;;;12.23;5.13;;;14.80;82.60;;;;;;5083396;28;20055;-66
2023/09/23 10:14:20;;;;;;;6.70;3.75;;;14.70;83.00;;;;;;5071229;28;20102;-65
2023/09/23 10:17:05;;;;;;;6.30;3.00;;;14.60;83.20;;;;;;5091486;28;20048;-66
2023/09/23 10:19:38;;;;;;;8.00;3.30;;;14.50;83.10;;;;;;5093216;28;20083;-66
2023/09/23 10:22:21;;;;;;;8.70;3.42;;;14.50;83.20;;;;;;5080376;28;20045;-66
2023/09/23 10:25:04;;;;;;;7.30;4.25;;;14.50;83.50;;;;;;5080921;28;20040;-65
2023/09/23 10:27:30;;;;;;;6.28;3.45;;;14.60;83.80;;;;;;5092570;28;20056;-67
2023/09/23 10:29:57;;;;;;;9.52;3.95;;;14.70;83.70;;;;;;5093085;28;20071;-66
2023/09/23 10:32:23;;;;;;;10.43;4.72;;;14.80;83.80;;;;;;5090489;28;20059;-65
2023/09/23 10:34:58;;;;;;;9.77;4.78;;;14.90;84.20;;;;;;5083989;28;20044;-65
2023/09/23 10:37:25;;;;;;;6.68;4.10;;;15.00;83.80;;;;;;5085302;28;20048;-65
2023/09/23 10:39:51;;;;;;;6.65;3.83;;;15.20;83.80;;;;;;5082173;28;20443;-64
2023/09/23 10:42:17;;;;;;;7.97;3.75;;;15.30;82.80;;;;;;5101468;22;20040;-64
2023/09/23 10:44:46;;;;;;;9.60;4.68;;;15.30;82.80;;;;;;5022648;22;20057;-66
2023/09/23 10:47:11;;;;;;;9.13;4.30;;;15.40;82.80;;;;;;5057584;28;20083;-66
2023/09/23 10:49:37;;;;;;;7.50;4.40;;;15.40;82.70;;;;;;5024365;28;20643;-64
2023/09/23 10:52:11;;;;;;;8.73;4.20;;;15.30;82.60;;;;;;5048141;28;20041;-64
2023/09/23 10:54:37;;;;;;;8.32;2.75;;;15.30;83.00;;;;;;5045914;28;20225;-66
2023/09/23 10:57:03;;;;;;;4.97;1.58;;;15.30;81.90;;;;;;5048456;28;20044;-67
2023/09/23 10:59:29;;;;;;;2.20;0.90;;;15.30;81.20;;;;;;5048491;28;20493;-67
2023/09/23 11:01:55;;;;;;;4.53;1.20;;;15.40;80.10;;;;;;5051738;28;20444;-67
2023/09/23 11:04:23;;;;;;;3.65;1.05;;;15.50;80.60;;;;;;5048693;28;20490;-67
2023/09/23 11:06:48;;;;;;;4.82;1.20;;;15.50;80.10;;;;;;5048101;28;20512;-66
2023/09/23 11:09:14;;;;;;;2.97;1.40;;;15.60;80.90;;;;;;5045369;28;20044;-64
2023/09/23 11:11:41;;;;;;;4.72;1.30;;;15.60;80.80;;;;;;5049480;28;20059;-67
2023/09/23 11:14:13;;;;;;;5.22;1.52;;;15.60;80.80;;;;;;5050320;28;20468;-66
2023/09/23 11:16:42;;;;;;;5.47;0.88;;;15.60;80.70;;;;;;5051061;28;20405;-68
2023/09/23 11:19:08;;;;;;;2.30;0.70;;;15.60;78.60;;;;;;5049419;28;20040;-66
2023/09/23 11:21:46;;;;;;;4.20;0.70;;;15.60;78.20;;;;;;5048373;28;20055;-66
2023/09/23 11:24:15;;;;;;;3.47;0.88;;;15.60;78.00;;;;;;5048981;28;20088;-67
2023/09/23 11:26:41;;;;;;;3.60;0.50;;;15.50;78.30;;;;;;5038093;28;20574;-66
2023/09/23 11:29:08;;;;;;;2.22;0.80;;;15.40;78.80;;;;;;5029857;28;20595;-66
2023/09/23 11:31:34;;;;;;;3.40;0.93;;;15.40;79.00;;;;;;5041198;28;20471;-65
2023/09/23 11:34:00;;;;;;;3.17;0.85;;;15.40;78.90;;;;;;5048117;28;20041;-66
2023/09/23 11:36:25;;;;;;;4.88;0.85;;;15.50;78.80;;;;;;5038390;28;20056;-66
2023/09/23 11:38:51;;;;;;;2.95;0.90;;;15.60;79.20;;;;;;5028102;28;20124;-66
2023/09/23 11:41:17;;;;;;;2.95;0.60;;;15.60;79.20;;;;;;5047966;28;20084;-67
2023/09/23 11:43:43;;;;;;;0.95;0.35;;;15.70;79.30;;;;;;5036494;28;20107;-66
2023/09/23 11:46:09;;;;;;;1.35;0.40;;;15.60;74.50;;;;;;5046117;28;20061;-66
2023/09/23 11:48:35;;;;;;;0.90;0.30;;;15.50;76.50;;;;;;5040734;28;20049;-66
2023/09/23 11:51:01;;;;;;;1.95;0.52;;;15.30;77.00;;;;;;5047009;28;20042;-66
2023/09/23 11:53:27;;;;;;;3.97;0.50;;;15.00;77.50;;;;;;5046776;28;20546;-66
2023/09/23 11:55:53;;;;;;;1.88;0.70;;;15.00;78.00;;;;;;5042936;28;20132;-66
2023/09/23 11:58:22;;;;;;;1.40;0.40;;;14.80;78.70;;;;;;5041028;28;20451;-66
2023/09/23 12:00:47;;;;;;;3.00;0.60;;;14.70;78.90;;;;;;5037846;28;20047;-66
2023/09/23 12:03:14;;;;;;;1.92;0.50;;;14.60;79.20;;;;;;5044597;28;20049;-66
2023/09/23 12:05:41;;;;;;;3.13;0.52;;;14.60;79.70;;;;;;5050278;28;20462;-67
2023/09/23 12:08:09;;;;;;;1.40;0.20;;;14.70;79.70;;;;;;5040323;28;20049;-66
2023/09/23 12:10:36;;;;;;;1.27;0.43;;;14.60;79.20;;;;;;5049281;28;20465;-67
2023/09/23 12:13:02;;;;;;;0.70;0.30;;;14.70;79.30;;;;;;5033349;28;20057;-66
2023/09/23 12:15:29;;;;;;;1.77;0.40;;;14.80;79.30;;;;;;5049472;28;20493;-67
2023/09/23 12:17:55;;;;;;;2.25;0.68;;;14.80;78.60;;;;;;5045611;28;20102;-66
2023/09/23 12:20:22;;;;;;;3.30;0.40;;;14.90;78.90;;;;;;5047253;28;20367;-63
2023/09/23 12:22:48;;;;;;;2.03;0.60;;;15.00;79.10;;;;;;5048290;28;20045;-67
2023/09/23 12:25:15;;;;;;;0.90;0.55;;;15.00;79.10;;;;;;5048919;28;20056;-66
2023/09/23 12:27:40;;;;;;;1.77;0.38;;;15.10;78.60;;;;;;5041289;28;20045;-66
2023/09/23 12:30:07;;;;;;;2.72;0.68;;;15.20;78.90;;;;;;5029461;28;20033;-67
2023/09/23 12:32:33;;;;;;;3.17;0.98;;;15.20;79.10;;;;;;5031860;28;20045;-63
2023/09/23 12:34:59;;;;;;;2.65;0.73;;;15.30;79.00;;;;;;5052117;28;20037;-65
2023/09/23 12:37:27;;;;;;;4.10;0.65;;;15.50;78.80;;;;;;5035863;28;20060;-67